sensor_id;sensor_type;location;lat;lon;timestamp;pressure;altitude;pressure_sealevel;temperature;humidity
49341;BME280;35209;51.050;13.678;2023-03-19T00:00:34;99781.75;;;7.92;58.00
49341;BME280;35209;51.050;13.678;2023-03-19T00:05:36;99776.50;;;7.94;57.69
49341;BME280;35209;51.050;13.678;2023-03-19T00:10:38;99783.22;;;8.04;57.08
49341;BME280;35209;51.050;13.678;2023-03-19T00:15:40;99783.63;;;7.87;57.91
49341;BME280;35209;51.050;13.678;2023-03-19T00:20:42;99785.22;;;7.94;57.78
49341;BME280;35209;51.050;13.678;2023-03-19T00:25:44;99781.31;;;8.11;57.29
49341;BME280;35209;51.050;13.678;2023-03-19T00:30:45;99784.25;;;7.98;57.61
49341;BME280;35209;51.050;13.678;2023-03-19T00:35:47;99777.09;;;7.71;58.69
49341;BME280;35209;51.050;13.678;2023-03-19T00:40:49;99773.09;;;7.90;57.55
49341;BME280;35209;51.050;13.678;2023-03-19T00:45:52;99773.72;;;8.00;57.15
49341;BME280;35209;51.050;13.678;2023-03-19T00:50:55;99774.03;;;7.88;57.52
49341;BME280;35209;51.050;13.678;2023-03-19T00:55:57;99778.94;;;7.66;58.40
49341;BME280;35209;51.050;13.678;2023-03-19T01:00:59;99789.31;;;7.69;58.49
49341;BME280;35209;51.050;13.678;2023-03-19T01:06:01;99785.00;;;7.68;58.43
49341;BME280;35209;51.050;13.678;2023-03-19T01:11:13;99783.53;;;7.56;59.12
49341;BME280;35209;51.050;13.678;2023-03-19T01:16:17;99775.88;;;7.48;59.70
49341;BME280;35209;51.050;13.678;2023-03-19T01:21:20;99770.94;;;7.72;57.91
49341;BME280;35209;51.050;13.678;2023-03-19T01:26:24;99765.53;;;7.44;59.23
49341;BME280;35209;51.050;13.678;2023-03-19T01:31:30;99770.16;;;7.31;59.51
49341;BME280;35209;51.050;13.678;2023-03-19T01:36:58;99772.25;;;7.54;58.52
49341;BME280;35209;51.050;13.678;2023-03-19T01:42:05;99763.53;;;7.53;58.67
49341;BME280;35209;51.050;13.678;2023-03-19T01:47:31;99755.66;;;7.55;59.09
49341;BME280;35209;51.050;13.678;2023-03-19T01:52:52;99762.81;;;7.47;59.21
49341;BME280;35209;51.050;13.678;2023-03-19T01:58:23;99768.13;;;7.44;59.98
49341;BME280;35209;51.050;13.678;2023-03-19T02:03:45;99773.50;;;7.38;60.10
49341;BME280;35209;51.050;13.678;2023-03-19T02:08:51;99769.88;;;7.43;59.58
49341;BME280;35209;51.050;13.678;2023-03-19T02:13:53;99760.81;;;7.58;58.96
49341;BME280;35209;51.050;13.678;2023-03-19T02:18:55;99763.03;;;7.38;59.84
49341;BME280;35209;51.050;13.678;2023-03-19T02:24:07;99749.03;;;7.40;59.31
49341;BME280;35209;51.050;13.678;2023-03-19T02:29:33;99756.50;;;7.55;58.51
49341;BME280;35209;51.050;13.678;2023-03-19T02:34:38;99767.28;;;7.42;59.37
49341;BME280;35209;51.050;13.678;2023-03-19T02:40:11;99753.97;;;7.15;60.42
49341;BME280;35209;51.050;13.678;2023-03-19T02:45:12;99761.16;;;7.43;58.99
49341;BME280;35209;51.050;13.678;2023-03-19T02:50:14;99767.13;;;7.49;58.31
49341;BME280;35209;51.050;13.678;2023-03-19T02:55:16;99762.00;;;7.45;58.75
49341;BME280;35209;51.050;13.678;2023-03-19T03:00:18;99764.16;;;7.26;59.25
49341;BME280;35209;51.050;13.678;2023-03-19T03:05:21;99765.44;;;7.08;60.30
49341;BME280;35209;51.050;13.678;2023-03-19T03:10:23;99781.63;;;6.83;61.16
49341;BME280;35209;51.050;13.678;2023-03-19T03:15:25;99803.59;;;6.75;61.60
49341;BME280;35209;51.050;13.678;2023-03-19T03:20:27;99792.19;;;6.79;61.80
49341;BME280;35209;51.050;13.678;2023-03-19T03:25:28;99793.41;;;7.04;60.87
49341;BME280;35209;51.050;13.678;2023-03-19T03:30:31;99788.13;;;7.06;60.46
49341;BME280;35209;51.050;13.678;2023-03-19T03:35:33;99793.84;;;6.83;61.35
49341;BME280;35209;51.050;13.678;2023-03-19T03:40:35;99778.47;;;6.69;61.56
49341;BME280;35209;51.050;13.678;2023-03-19T03:45:37;99791.56;;;7.08;60.31
49341;BME280;35209;51.050;13.678;2023-03-19T03:50:39;99786.53;;;6.99;60.45
49341;BME280;35209;51.050;13.678;2023-03-19T03:55:44;99790.00;;;6.99;60.38
49341;BME280;35209;51.050;13.678;2023-03-19T04:00:46;99803.69;;;7.12;59.81
49341;BME280;35209;51.050;13.678;2023-03-19T04:05:49;99791.28;;;7.22;59.42
49341;BME280;35209;51.050;13.678;2023-03-19T04:10:51;99795.06;;;7.07;59.57
49341;BME280;35209;51.050;13.678;2023-03-19T04:15:53;99782.25;;;6.96;60.34
49341;BME280;35209;51.050;13.678;2023-03-19T04:20:57;99786.91;;;6.80;61.11
49341;BME280;35209;51.050;13.678;2023-03-19T04:26:00;99776.81;;;7.05;59.44
49341;BME280;35209;51.050;13.678;2023-03-19T04:31:06;99782.22;;;6.98;60.13
49341;BME280;35209;51.050;13.678;2023-03-19T04:36:12;99787.59;;;6.90;60.24
49341;BME280;35209;51.050;13.678;2023-03-19T04:41:14;99791.94;;;6.90;60.95
49341;BME280;35209;51.050;13.678;2023-03-19T04:46:33;99785.00;;;6.89;60.16
49341;BME280;35209;51.050;13.678;2023-03-19T04:51:35;99784.00;;;6.96;59.90
49341;BME280;35209;51.050;13.678;2023-03-19T04:56:37;99792.03;;;6.87;59.73
49341;BME280;35209;51.050;13.678;2023-03-19T05:01:40;99786.97;;;6.79;60.31
49341;BME280;35209;51.050;13.678;2023-03-19T05:06:45;99788.53;;;6.86;59.55
49341;BME280;35209;51.050;13.678;2023-03-19T05:11:47;99798.44;;;6.70;60.47
49341;BME280;35209;51.050;13.678;2023-03-19T05:16:53;99788.69;;;6.80;59.73
49341;BME280;35209;51.050;13.678;2023-03-19T05:21:55;99799.59;;;6.57;60.66
49341;BME280;35209;51.050;13.678;2023-03-19T05:26:58;99799.50;;;6.62;60.61
49341;BME280;35209;51.050;13.678;2023-03-19T05:32:15;99790.47;;;6.31;62.08
49341;BME280;35209;51.050;13.678;2023-03-19T05:37:18;99788.75;;;6.30;62.45
49341;BME280;35209;51.050;13.678;2023-03-19T05:42:26;99798.34;;;6.28;62.56
49341;BME280;35209;51.050;13.678;2023-03-19T05:47:30;99801.66;;;6.40;62.45
49341;BME280;35209;51.050;13.678;2023-03-19T05:52:32;99811.38;;;6.31;62.64
49341;BME280;35209;51.050;13.678;2023-03-19T05:57:35;99808.22;;;6.61;61.51
49341;BME280;35209;51.050;13.678;2023-03-19T06:02:43;99819.13;;;6.81;60.48
49341;BME280;35209;51.050;13.678;2023-03-19T06:07:51;99823.91;;;6.61;61.43
49341;BME280;35209;51.050;13.678;2023-03-19T06:13:01;99826.09;;;6.80;60.47
49341;BME280;35209;51.050;13.678;2023-03-19T06:18:16;99822.44;;;6.91;59.75
49341;BME280;35209;51.050;13.678;2023-03-19T06:23:18;99815.56;;;6.87;60.10
49341;BME280;35209;51.050;13.678;2023-03-19T06:28:20;99814.38;;;7.01;59.16
49341;BME280;35209;51.050;13.678;2023-03-19T06:33:23;99814.91;;;7.17;58.58
49341;BME280;35209;51.050;13.678;2023-03-19T06:38:28;99821.00;;;7.18;58.63
49341;BME280;35209;51.050;13.678;2023-03-19T06:43:30;99822.25;;;7.40;57.16
49341;BME280;35209;51.050;13.678;2023-03-19T06:48:33;99818.47;;;7.53;57.40
49341;BME280;35209;51.050;13.678;2023-03-19T06:53:35;99820.50;;;7.79;55.29
49341;BME280;35209;51.050;13.678;2023-03-19T06:58:37;99826.00;;;7.67;56.35
49341;BME280;35209;51.050;13.678;2023-03-19T07:03:38;99838.72;;;7.82;56.65
49341;BME280;35209;51.050;13.678;2023-03-19T07:08:41;99837.09;;;8.13;54.96
49341;BME280;35209;51.050;13.678;2023-03-19T07:13:46;99848.25;;;8.21;54.36
49341;BME280;35209;51.050;13.678;2023-03-19T07:18:48;99843.28;;;8.10;54.81
49341;BME280;35209;51.050;13.678;2023-03-19T07:23:50;99850.88;;;8.21;54.21
49341;BME280;35209;51.050;13.678;2023-03-19T07:28:52;99855.06;;;8.28;54.93
49341;BME280;35209;51.050;13.678;2023-03-19T07:33:54;99858.53;;;8.28;54.52
49341;BME280;35209;51.050;13.678;2023-03-19T07:38:56;99851.47;;;8.66;53.37
49341;BME280;35209;51.050;13.678;2023-03-19T07:43:58;99851.69;;;8.90;53.94
49341;BME280;35209;51.050;13.678;2023-03-19T07:48:59;99856.78;;;8.96;53.73
49341;BME280;35209;51.050;13.678;2023-03-19T07:54:01;99856.81;;;9.25;51.56
49341;BME280;35209;51.050;13.678;2023-03-19T07:59:04;99850.34;;;9.37;52.08
49341;BME280;35209;51.050;13.678;2023-03-19T08:04:06;99851.75;;;9.49;52.60
49341;BME280;35209;51.050;13.678;2023-03-19T08:09:08;99848.81;;;9.86;50.25
49341;BME280;35209;51.050;13.678;2023-03-19T08:14:10;99860.25;;;9.85;50.40
49341;BME280;35209;51.050;13.678;2023-03-19T08:19:12;99855.91;;;9.84;49.66
49341;BME280;35209;51.050;13.678;2023-03-19T08:24:14;99857.16;;;10.27;49.67
49341;BME280;35209;51.050;13.678;2023-03-19T08:29:15;99858.50;;;10.39;47.60
49341;BME280;35209;51.050;13.678;2023-03-19T08:34:20;99849.69;;;10.41;49.43
49341;BME280;35209;51.050;13.678;2023-03-19T08:39:22;99861.34;;;10.59;47.77
49341;BME280;35209;51.050;13.678;2023-03-19T08:44:24;99859.75;;;11.03;46.91
49341;BME280;35209;51.050;13.678;2023-03-19T08:49:26;99864.38;;;10.97;48.03
49341;BME280;35209;51.050;13.678;2023-03-19T08:54:28;99858.44;;;11.15;47.67
49341;BME280;35209;51.050;13.678;2023-03-19T08:59:30;99856.88;;;11.56;46.60
49341;BME280;35209;51.050;13.678;2023-03-19T09:04:34;99862.19;;;11.78;46.13
49341;BME280;35209;51.050;13.678;2023-03-19T09:09:40;99862.44;;;11.49;46.39
49341;BME280;35209;51.050;13.678;2023-03-19T09:14:42;99863.06;;;12.01;44.93
49341;BME280;35209;51.050;13.678;2023-03-19T09:19:44;99865.81;;;11.98;46.46
49341;BME280;35209;51.050;13.678;2023-03-19T09:24:45;99863.59;;;12.31;44.49
49341;BME280;35209;51.050;13.678;2023-03-19T09:29:47;99864.66;;;12.47;44.69
49341;BME280;35209;51.050;13.678;2023-03-19T09:34:49;99872.47;;;12.71;44.35
49341;BME280;35209;51.050;13.678;2023-03-19T09:39:51;99865.78;;;12.62;44.96
49341;BME280;35209;51.050;13.678;2023-03-19T09:44:53;99857.34;;;12.74;44.65
49341;BME280;35209;51.050;13.678;2023-03-19T09:49:57;99858.75;;;13.22;43.80
49341;BME280;35209;51.050;13.678;2023-03-19T09:55:04;99852.78;;;13.37;43.90
49341;BME280;35209;51.050;13.678;2023-03-19T10:00:25;99852.53;;;13.23;43.12
49341;BME280;35209;51.050;13.678;2023-03-19T10:05:41;99844.13;;;13.72;43.08
49341;BME280;35209;51.050;13.678;2023-03-19T10:11:18;99841.66;;;13.69;42.75
49341;BME280;35209;51.050;13.678;2023-03-19T10:16:26;99842.31;;;13.91;42.13
49341;BME280;35209;51.050;13.678;2023-03-19T10:22:11;99840.19;;;14.34;41.79
49341;BME280;35209;51.050;13.678;2023-03-19T10:27:00;99838.59;;;14.99;41.26
49341;BME280;35209;51.050;13.678;2023-03-19T10:37:28;99838.09;;;15.57;39.05
49341;BME280;35209;51.050;13.678;2023-03-19T10:47:42;99842.59;;;15.73;40.05
49341;BME280;35209;51.050;13.678;2023-03-19T10:52:44;99833.59;;;15.91;39.94
49341;BME280;35209;51.050;13.678;2023-03-19T10:57:49;99827.84;;;16.29;38.26
49341;BME280;35209;51.050;13.678;2023-03-19T11:02:53;99832.47;;;15.79;39.15
49341;BME280;35209;51.050;13.678;2023-03-19T11:08:05;99830.03;;;15.76;39.53
49341;BME280;35209;51.050;13.678;2023-03-19T11:13:19;99828.06;;;15.64;39.42
49341;BME280;35209;51.050;13.678;2023-03-19T11:18:29;99828.66;;;15.85;39.05
49341;BME280;35209;51.050;13.678;2023-03-19T11:23:38;99820.50;;;15.88;39.65
49341;BME280;35209;51.050;13.678;2023-03-19T11:28:41;99818.16;;;16.13;40.84
49341;BME280;35209;51.050;13.678;2023-03-19T11:39:11;99820.31;;;16.81;38.99
49341;BME280;35209;51.050;13.678;2023-03-19T12:10:48;99812.84;;;16.88;38.12
49341;BME280;35209;51.050;13.678;2023-03-19T12:21:58;99806.97;;;17.11;38.97
49341;BME280;35209;51.050;13.678;2023-03-19T12:27:54;99810.19;;;17.17;38.24
49341;BME280;35209;51.050;13.678;2023-03-19T12:38:38;99806.06;;;16.68;40.43
49341;BME280;35209;51.050;13.678;2023-03-19T12:44:36;99803.94;;;16.75;39.27
49341;BME280;35209;51.050;13.678;2023-03-19T12:49:41;99803.56;;;16.81;41.21
49341;BME280;35209;51.050;13.678;2023-03-19T12:54:55;99796.13;;;16.72;39.98
49341;BME280;35209;51.050;13.678;2023-03-19T13:00:09;99804.47;;;16.65;39.96
49341;BME280;35209;51.050;13.678;2023-03-19T13:10:23;99800.50;;;16.73;40.03
49341;BME280;35209;51.050;13.678;2023-03-19T13:15:39;99805.00;;;17.01;39.81
49341;BME280;35209;51.050;13.678;2023-03-19T13:20:49;99807.13;;;16.65;39.24
49341;BME280;35209;51.050;13.678;2023-03-19T13:25:53;99800.28;;;16.47;40.38
49341;BME280;35209;51.050;13.678;2023-03-19T13:30:59;99801.88;;;16.64;40.95
49341;BME280;35209;51.050;13.678;2023-03-19T13:36:04;99799.84;;;16.69;40.50
49341;BME280;35209;51.050;13.678;2023-03-19T13:46:40;99798.84;;;16.11;42.07
49341;BME280;35209;51.050;13.678;2023-03-19T13:51:48;99797.97;;;16.55;40.40
49341;BME280;35209;51.050;13.678;2023-03-19T14:01:57;99800.66;;;15.95;42.29
49341;BME280;35209;51.050;13.678;2023-03-19T14:07:16;99800.13;;;16.04;42.28
49341;BME280;35209;51.050;13.678;2023-03-19T14:12:37;99797.50;;;15.88;42.94
49341;BME280;35209;51.050;13.678;2023-03-19T14:28:22;99796.25;;;15.64;43.27
49341;BME280;35209;51.050;13.678;2023-03-19T14:33:28;99797.19;;;15.63;44.19
49341;BME280;35209;51.050;13.678;2023-03-19T14:38:37;99787.69;;;15.91;44.83
49341;BME280;35209;51.050;13.678;2023-03-19T14:49:49;99795.94;;;16.16;44.10
49341;BME280;35209;51.050;13.678;2023-03-19T14:55:00;99787.56;;;16.38;42.85
49341;BME280;35209;51.050;13.678;2023-03-19T15:00:05;99800.19;;;16.19;44.50
49341;BME280;35209;51.050;13.678;2023-03-19T15:05:08;99797.56;;;16.33;43.05
49341;BME280;35209;51.050;13.678;2023-03-19T15:10:22;99794.00;;;16.48;42.92
49341;BME280;35209;51.050;13.678;2023-03-19T15:15:42;99809.28;;;16.29;43.87
49341;BME280;35209;51.050;13.678;2023-03-19T15:20:52;99803.09;;;16.14;50.22
49341;BME280;35209;51.050;13.678;2023-03-19T15:26:02;99804.69;;;15.86;51.28
49341;BME280;35209;51.050;13.678;2023-03-19T15:31:05;99812.31;;;15.77;56.05
49341;BME280;35209;51.050;13.678;2023-03-19T15:36:30;99809.22;;;15.53;59.25
49341;BME280;35209;51.050;13.678;2023-03-19T15:41:45;99816.94;;;15.08;61.67
49341;BME280;35209;51.050;13.678;2023-03-19T15:46:48;99818.00;;;15.22;61.27
49341;BME280;35209;51.050;13.678;2023-03-19T15:51:56;99821.53;;;15.05;62.26
49341;BME280;35209;51.050;13.678;2023-03-19T15:56:59;99833.72;;;14.92;64.08
49341;BME280;35209;51.050;13.678;2023-03-19T16:02:03;99824.19;;;14.72;65.06
49341;BME280;35209;51.050;13.678;2023-03-19T16:07:41;99840.19;;;14.86;66.13
49341;BME280;35209;51.050;13.678;2023-03-19T16:12:48;99843.03;;;14.48;69.76
49341;BME280;35209;51.050;13.678;2023-03-19T16:17:50;99852.25;;;14.39;71.06
49341;BME280;35209;51.050;13.678;2023-03-19T16:22:54;99854.31;;;14.16;73.40
49341;BME280;35209;51.050;13.678;2023-03-19T16:27:57;99859.56;;;13.98;75.68
49341;BME280;35209;51.050;13.678;2023-03-19T16:33:02;99864.81;;;13.81;76.64
49341;BME280;35209;51.050;13.678;2023-03-19T16:38:17;99875.06;;;13.51;79.93
49341;BME280;35209;51.050;13.678;2023-03-19T16:43:22;99881.84;;;13.56;79.33
49341;BME280;35209;51.050;13.678;2023-03-19T16:48:25;99893.47;;;13.52;80.26
49341;BME280;35209;51.050;13.678;2023-03-19T16:53:30;99897.59;;;13.39;81.67
49341;BME280;35209;51.050;13.678;2023-03-19T16:58:35;99894.53;;;13.29;84.62
49341;BME280;35209;51.050;13.678;2023-03-19T17:03:44;99894.66;;;13.06;84.92
49341;BME280;35209;51.050;13.678;2023-03-19T17:08:46;99899.06;;;13.05;85.44
49341;BME280;35209;51.050;13.678;2023-03-19T17:13:48;99899.28;;;12.80;86.13
49341;BME280;35209;51.050;13.678;2023-03-19T17:18:50;99900.38;;;12.75;85.91
49341;BME280;35209;51.050;13.678;2023-03-19T17:23:53;99902.69;;;12.82;83.77
49341;BME280;35209;51.050;13.678;2023-03-19T17:28:55;99911.72;;;12.56;85.88
49341;BME280;35209;51.050;13.678;2023-03-19T17:34:08;99907.50;;;12.52;86.06
49341;BME280;35209;51.050;13.678;2023-03-19T17:39:10;99916.94;;;12.58;85.91
49341;BME280;35209;51.050;13.678;2023-03-19T17:44:12;99907.03;;;12.43;86.75
49341;BME280;35209;51.050;13.678;2023-03-19T17:49:20;99912.19;;;12.24;89.40
49341;BME280;35209;51.050;13.678;2023-03-19T17:54:23;99911.75;;;12.12;90.83
49341;BME280;35209;51.050;13.678;2023-03-19T17:59:27;99910.16;;;12.08;91.68
49341;BME280;35209;51.050;13.678;2023-03-19T18:04:29;99923.16;;;11.91;93.93
49341;BME280;35209;51.050;13.678;2023-03-19T18:09:31;99921.25;;;11.71;96.15
49341;BME280;35209;51.050;13.678;2023-03-19T18:14:34;99918.88;;;11.65;98.29
49341;BME280;35209;51.050;13.678;2023-03-19T18:19:36;99924.16;;;11.63;100.00
49341;BME280;35209;51.050;13.678;2023-03-19T18:24:39;99920.59;;;11.43;100.00
49341;BME280;35209;51.050;13.678;2023-03-19T18:29:41;99932.50;;;11.28;100.00
49341;BME280;35209;51.050;13.678;2023-03-19T18:34:43;99934.34;;;11.26;100.00
49341;BME280;35209;51.050;13.678;2023-03-19T18:39:45;99931.72;;;11.26;100.00
49341;BME280;35209;51.050;13.678;2023-03-19T18:44:47;99937.41;;;11.14;100.00
49341;BME280;35209;51.050;13.678;2023-03-19T18:49:48;99936.50;;;11.15;100.00
49341;BME280;35209;51.050;13.678;2023-03-19T18:54:50;99929.69;;;11.09;100.00
49341;BME280;35209;51.050;13.678;2023-03-19T18:59:52;99942.69;;;11.14;100.00
49341;BME280;35209;51.050;13.678;2023-03-19T19:04:54;99947.53;;;11.24;100.00
49341;BME280;35209;51.050;13.678;2023-03-19T19:09:57;99946.59;;;11.27;100.00
49341;BME280;35209;51.050;13.678;2023-03-19T19:15:00;99944.53;;;11.11;100.00
49341;BME280;35209;51.050;13.678;2023-03-19T19:20:05;99953.28;;;11.12;100.00
49341;BME280;35209;51.050;13.678;2023-03-19T19:25:08;99955.84;;;11.14;100.00
49341;BME280;35209;51.050;13.678;2023-03-19T19:30:19;99952.78;;;11.01;100.00
49341;BME280;35209;51.050;13.678;2023-03-19T19:35:23;99957.19;;;11.00;100.00
49341;BME280;35209;51.050;13.678;2023-03-19T19:40:28;99962.28;;;11.05;100.00
49341;BME280;35209;51.050;13.678;2023-03-19T19:45:36;99958.84;;;11.03;100.00
49341;BME280;35209;51.050;13.678;2023-03-19T19:50:38;99967.53;;;11.05;100.00
49341;BME280;35209;51.050;13.678;2023-03-19T19:55:40;99967.84;;;10.96;100.00
49341;BME280;35209;51.050;13.678;2023-03-19T20:00:42;99969.97;;;10.84;100.00
49341;BME280;35209;51.050;13.678;2023-03-19T20:05:53;99973.59;;;10.82;100.00
49341;BME280;35209;51.050;13.678;2023-03-19T20:10:56;99973.44;;;10.86;100.00
49341;BME280;35209;51.050;13.678;2023-03-19T20:15:57;99982.25;;;10.85;100.00
49341;BME280;35209;51.050;13.678;2023-03-19T20:21:00;99984.88;;;10.85;100.00
49341;BME280;35209;51.050;13.678;2023-03-19T20:26:02;99986.72;;;10.82;100.00
49341;BME280;35209;51.050;13.678;2023-03-19T20:31:04;99987.66;;;10.81;100.00
49341;BME280;35209;51.050;13.678;2023-03-19T20:36:11;99986.50;;;10.88;100.00
49341;BME280;35209;51.050;13.678;2023-03-19T20:41:19;99982.19;;;10.87;100.00
49341;BME280;35209;51.050;13.678;2023-03-19T20:46:22;99989.28;;;10.85;100.00
49341;BME280;35209;51.050;13.678;2023-03-19T20:51:25;99984.72;;;10.90;100.00
49341;BME280;35209;51.050;13.678;2023-03-19T20:56:33;99987.06;;;10.98;100.00
49341;BME280;35209;51.050;13.678;2023-03-19T21:01:38;99991.91;;;10.85;100.00
49341;BME280;35209;51.050;13.678;2023-03-19T21:06:39;99987.03;;;10.73;100.00
49341;BME280;35209;51.050;13.678;2023-03-19T21:11:53;99986.78;;;10.54;100.00
49341;BME280;35209;51.050;13.678;2023-03-19T21:16:55;99982.88;;;10.39;100.00
49341;BME280;35209;51.050;13.678;2023-03-19T21:21:57;99984.03;;;10.30;100.00
49341;BME280;35209;51.050;13.678;2023-03-19T21:26:59;99980.69;;;10.25;100.00
49341;BME280;35209;51.050;13.678;2023-03-19T21:32:09;99978.38;;;10.15;100.00
49341;BME280;35209;51.050;13.678;2023-03-19T21:37:11;99979.53;;;10.04;100.00
49341;BME280;35209;51.050;13.678;2023-03-19T21:42:20;99980.78;;;9.93;100.00
49341;BME280;35209;51.050;13.678;2023-03-19T21:47:23;99978.47;;;9.82;100.00
49341;BME280;35209;51.050;13.678;2023-03-19T21:52:26;99982.28;;;9.72;100.00
49341;BME280;35209;51.050;13.678;2023-03-19T21:57:28;99977.94;;;9.71;100.00
49341;BME280;35209;51.050;13.678;2023-03-19T22:02:38;99985.88;;;9.68;100.00
49341;BME280;35209;51.050;13.678;2023-03-19T22:07:40;99980.75;;;9.63;100.00
49341;BME280;35209;51.050;13.678;2023-03-19T22:12:44;99966.91;;;9.58;100.00
49341;BME280;35209;51.050;13.678;2023-03-19T22:17:47;99980.72;;;9.94;100.00
49341;BME280;35209;51.050;13.678;2023-03-19T22:22:50;99984.47;;;9.56;100.00
49341;BME280;35209;51.050;13.678;2023-03-19T22:27:52;99985.03;;;9.36;100.00
49341;BME280;35209;51.050;13.678;2023-03-19T22:32:55;99984.31;;;9.31;100.00
49341;BME280;35209;51.050;13.678;2023-03-19T22:37:57;99986.78;;;9.35;100.00
49341;BME280;35209;51.050;13.678;2023-03-19T22:42:59;99989.44;;;9.34;100.00
49341;BME280;35209;51.050;13.678;2023-03-19T22:48:01;99991.47;;;9.55;100.00
49341;BME280;35209;51.050;13.678;2023-03-19T22:53:17;99978.47;;;9.52;100.00
49341;BME280;35209;51.050;13.678;2023-03-19T22:58:20;99982.50;;;9.94;100.00
49341;BME280;35209;51.050;13.678;2023-03-19T23:03:27;99975.72;;;9.55;100.00
49341;BME280;35209;51.050;13.678;2023-03-19T23:08:31;99983.84;;;9.46;100.00
49341;BME280;35209;51.050;13.678;2023-03-19T23:13:33;99980.72;;;9.33;100.00
49341;BME280;35209;51.050;13.678;2023-03-19T23:18:35;99981.63;;;9.32;100.00
49341;BME280;35209;51.050;13.678;2023-03-19T23:23:38;99976.44;;;9.31;100.00
49341;BME280;35209;51.050;13.678;2023-03-19T23:28:40;99972.50;;;9.46;100.00
49341;BME280;35209;51.050;13.678;2023-03-19T23:33:42;99971.03;;;9.67;100.00
49341;BME280;35209;51.050;13.678;2023-03-19T23:38:46;99964.16;;;9.63;100.00
49341;BME280;35209;51.050;13.678;2023-03-19T23:43:48;99973.38;;;9.46;100.00
49341;BME280;35209;51.050;13.678;2023-03-19T23:48:50;99970.63;;;9.51;100.00
49341;BME280;35209;51.050;13.678;2023-03-19T23:53:52;99973.41;;;9.45;100.00
49341;BME280;35209;51.050;13.678;2023-03-19T23:58:54;99975.19;;;9.44;100.00
